sensor_id;sensor_type;location;lat;lon;timestamp;P1;durP1;ratioP1;P2;durP2;ratioP2
65375;SDS011;51976;47.332;9.404;2023-05-10T00:00:50;0.10;;;0.00;;
65375;SDS011;51976;47.332;9.404;2023-05-10T00:03:15;0.00;;;0.00;;
65375;SDS011;51976;47.332;9.404;2023-05-10T00:05:41;0.05;;;0.00;;
65375;SDS011;51976;47.332;9.404;2023-05-10T00:08:06;0.10;;;0.00;;
65375;SDS011;51976;47.332;9.404;2023-05-10T00:10:32;3.20;;;0.10;;
65375;SDS011;51976;47.332;9.404;2023-05-10T00:12:57;0.20;;;0.10;;
65375;SDS011;51976;47.332;9.404;2023-05-10T00:15:23;0.10;;;0.00;;
65375;SDS011;51976;47.332;9.404;2023-05-10T00:17:48;0.10;;;0.00;;
65375;SDS011;51976;47.332;9.404;2023-05-10T00:20:13;0.13;;;0.00;;
65375;SDS011;51976;47.332;9.404;2023-05-10T00:22:39;0.20;;;0.00;;
65375;SDS011;51976;47.332;9.404;2023-05-10T00:25:05;0.35;;;0.00;;
65375;SDS011;51976;47.332;9.404;2023-05-10T00:27:31;0.30;;;0.10;;
65375;SDS011;51976;47.332;9.404;2023-05-10T00:29:56;1.63;;;0.00;;
65375;SDS011;51976;47.332;9.404;2023-05-10T00:32:21;0.65;;;0.10;;
65375;SDS011;51976;47.332;9.404;2023-05-10T00:34:47;0.65;;;0.10;;
65375;SDS011;51976;47.332;9.404;2023-05-10T00:37:12;0.00;;;0.00;;
65375;SDS011;51976;47.332;9.404;2023-05-10T00:39:38;1.75;;;0.10;;
65375;SDS011;51976;47.332;9.404;2023-05-10T00:42:03;0.93;;;0.10;;
65375;SDS011;51976;47.332;9.404;2023-05-10T00:44:29;0.13;;;0.00;;
65375;SDS011;51976;47.332;9.404;2023-05-10T00:46:55;0.00;;;0.00;;
65375;SDS011;51976;47.332;9.404;2023-05-10T00:49:21;0.00;;;0.00;;
65375;SDS011;51976;47.332;9.404;2023-05-10T00:51:47;0.68;;;0.10;;
65375;SDS011;51976;47.332;9.404;2023-05-10T00:54:13;0.28;;;0.00;;
65375;SDS011;51976;47.332;9.404;2023-05-10T00:56:40;0.00;;;0.00;;
65375;SDS011;51976;47.332;9.404;2023-05-10T00:59:06;0.28;;;0.10;;
65375;SDS011;51976;47.332;9.404;2023-05-10T01:01:33;0.20;;;0.05;;
65375;SDS011;51976;47.332;9.404;2023-05-10T01:03:59;0.00;;;0.00;;
65375;SDS011;51976;47.332;9.404;2023-05-10T01:06:24;0.70;;;0.10;;
65375;SDS011;51976;47.332;9.404;2023-05-10T01:08:50;0.25;;;0.10;;
65375;SDS011;51976;47.332;9.404;2023-05-10T01:11:15;0.28;;;0.15;;
65375;SDS011;51976;47.332;9.404;2023-05-10T01:13:41;0.25;;;0.08;;
65375;SDS011;51976;47.332;9.404;2023-05-10T01:16:08;4.15;;;0.20;;
65375;SDS011;51976;47.332;9.404;2023-05-10T01:18:35;0.50;;;0.10;;
65375;SDS011;51976;47.332;9.404;2023-05-10T01:21:14;4.32;;;0.47;;
65375;SDS011;51976;47.332;9.404;2023-05-10T01:27:01;0.30;;;0.10;;
65375;SDS011;51976;47.332;9.404;2023-05-10T01:29:47;0.45;;;0.13;;
65375;SDS011;51976;47.332;9.404;2023-05-10T01:33:01;2.17;;;0.20;;
65375;SDS011;51976;47.332;9.404;2023-05-10T01:38:17;0.30;;;0.10;;
65375;SDS011;51976;47.332;9.404;2023-05-10T01:40:52;0.40;;;0.10;;
65375;SDS011;51976;47.332;9.404;2023-05-10T01:43:42;0.17;;;0.10;;
65375;SDS011;51976;47.332;9.404;2023-05-10T01:46:17;0.35;;;0.10;;
65375;SDS011;51976;47.332;9.404;2023-05-10T01:48:51;0.43;;;0.10;;
65375;SDS011;51976;47.332;9.404;2023-05-10T01:51:20;1.40;;;0.10;;
65375;SDS011;51976;47.332;9.404;2023-05-10T01:53:48;1.65;;;0.10;;
65375;SDS011;51976;47.332;9.404;2023-05-10T01:56:16;0.10;;;0.08;;
65375;SDS011;51976;47.332;9.404;2023-05-10T01:58:47;0.30;;;0.10;;
65375;SDS011;51976;47.332;9.404;2023-05-10T02:01:15;1.75;;;0.00;;
65375;SDS011;51976;47.332;9.404;2023-05-10T02:03:41;0.35;;;0.08;;
65375;SDS011;51976;47.332;9.404;2023-05-10T02:06:09;0.25;;;0.10;;
65375;SDS011;51976;47.332;9.404;2023-05-10T02:08:37;0.60;;;0.10;;
65375;SDS011;51976;47.332;9.404;2023-05-10T02:11:05;0.45;;;0.20;;
65375;SDS011;51976;47.332;9.404;2023-05-10T02:13:31;0.35;;;0.03;;
65375;SDS011;51976;47.332;9.404;2023-05-10T02:16:00;0.35;;;0.10;;
65375;SDS011;51976;47.332;9.404;2023-05-10T02:18:28;2.92;;;0.20;;
65375;SDS011;51976;47.332;9.404;2023-05-10T02:20:55;0.22;;;0.10;;
65375;SDS011;51976;47.332;9.404;2023-05-10T02:23:21;0.47;;;0.15;;
65375;SDS011;51976;47.332;9.404;2023-05-10T02:25:48;0.28;;;0.13;;
65375;SDS011;51976;47.332;9.404;2023-05-10T02:28:16;0.95;;;0.10;;
65375;SDS011;51976;47.332;9.404;2023-05-10T02:30:43;0.45;;;0.10;;
65375;SDS011;51976;47.332;9.404;2023-05-10T02:33:09;0.55;;;0.20;;
65375;SDS011;51976;47.332;9.404;2023-05-10T02:35:35;0.10;;;0.10;;
65375;SDS011;51976;47.332;9.404;2023-05-10T02:38:03;0.40;;;0.05;;
65375;SDS011;51976;47.332;9.404;2023-05-10T02:40:29;0.88;;;0.30;;
65375;SDS011;51976;47.332;9.404;2023-05-10T02:42:56;0.10;;;0.10;;
65375;SDS011;51976;47.332;9.404;2023-05-10T02:45:24;0.68;;;0.20;;
65375;SDS011;51976;47.332;9.404;2023-05-10T02:47:53;0.50;;;0.20;;
65375;SDS011;51976;47.332;9.404;2023-05-10T02:50:19;0.40;;;0.13;;
65375;SDS011;51976;47.332;9.404;2023-05-10T02:52:49;0.00;;;0.00;;
65375;SDS011;51976;47.332;9.404;2023-05-10T02:55:19;2.28;;;0.20;;
65375;SDS011;51976;47.332;9.404;2023-05-10T02:57:54;0.40;;;0.20;;
65375;SDS011;51976;47.332;9.404;2023-05-10T03:00:24;1.13;;;0.50;;
65375;SDS011;51976;47.332;9.404;2023-05-10T03:02:50;1.50;;;0.30;;
65375;SDS011;51976;47.332;9.404;2023-05-10T03:05:15;1.67;;;0.28;;
65375;SDS011;51976;47.332;9.404;2023-05-10T03:07:41;1.63;;;0.25;;
65375;SDS011;51976;47.332;9.404;2023-05-10T03:10:06;0.40;;;0.30;;
65375;SDS011;51976;47.332;9.404;2023-05-10T03:13:01;0.38;;;0.20;;
65375;SDS011;51976;47.332;9.404;2023-05-10T03:18:28;0.85;;;0.30;;
65375;SDS011;51976;47.332;9.404;2023-05-10T03:20:59;0.52;;;0.20;;
65375;SDS011;51976;47.332;9.404;2023-05-10T03:23:41;0.70;;;0.30;;
65375;SDS011;51976;47.332;9.404;2023-05-10T03:26:09;1.67;;;0.40;;
65375;SDS011;51976;47.332;9.404;2023-05-10T03:28:39;2.72;;;0.50;;
65375;SDS011;51976;47.332;9.404;2023-05-10T03:31:06;0.95;;;0.30;;
65375;SDS011;51976;47.332;9.404;2023-05-10T03:33:32;1.67;;;0.20;;
65375;SDS011;51976;47.332;9.404;2023-05-10T03:35:58;0.52;;;0.20;;
65375;SDS011;51976;47.332;9.404;2023-05-10T03:38:23;0.60;;;0.32;;
65375;SDS011;51976;47.332;9.404;2023-05-10T03:40:48;1.75;;;0.52;;
65375;SDS011;51976;47.332;9.404;2023-05-10T03:43:14;2.40;;;0.30;;
65375;SDS011;51976;47.332;9.404;2023-05-10T03:45:39;0.52;;;0.30;;
65375;SDS011;51976;47.332;9.404;2023-05-10T03:48:05;0.57;;;0.30;;
65375;SDS011;51976;47.332;9.404;2023-05-10T03:50:30;1.80;;;0.25;;
65375;SDS011;51976;47.332;9.404;2023-05-10T03:52:56;2.47;;;0.20;;
65375;SDS011;51976;47.332;9.404;2023-05-10T03:55:22;0.68;;;0.30;;
65375;SDS011;51976;47.332;9.404;2023-05-10T03:57:47;1.17;;;0.28;;
65375;SDS011;51976;47.332;9.404;2023-05-10T04:00:14;0.80;;;0.32;;
65375;SDS011;51976;47.332;9.404;2023-05-10T04:02:40;0.68;;;0.30;;
65375;SDS011;51976;47.332;9.404;2023-05-10T04:05:05;3.00;;;0.45;;
65375;SDS011;51976;47.332;9.404;2023-05-10T04:07:31;1.10;;;0.50;;
65375;SDS011;51976;47.332;9.404;2023-05-10T04:09:56;1.52;;;0.40;;
65375;SDS011;51976;47.332;9.404;2023-05-10T04:12:22;2.17;;;0.40;;
65375;SDS011;51976;47.332;9.404;2023-05-10T04:14:47;1.20;;;0.50;;
65375;SDS011;51976;47.332;9.404;2023-05-10T04:17:13;1.10;;;0.73;;
65375;SDS011;51976;47.332;9.404;2023-05-10T04:19:38;1.95;;;0.93;;
65375;SDS011;51976;47.332;9.404;2023-05-10T04:22:03;2.42;;;1.20;;
65375;SDS011;51976;47.332;9.404;2023-05-10T04:24:29;1.70;;;0.70;;
65375;SDS011;51976;47.332;9.404;2023-05-10T04:26:54;2.65;;;1.13;;
65375;SDS011;51976;47.332;9.404;2023-05-10T04:29:20;3.72;;;1.77;;
65375;SDS011;51976;47.332;9.404;2023-05-10T04:31:45;4.10;;;2.15;;
65375;SDS011;51976;47.332;9.404;2023-05-10T04:34:12;3.95;;;2.58;;
65375;SDS011;51976;47.332;9.404;2023-05-10T04:36:37;6.53;;;2.88;;
65375;SDS011;51976;47.332;9.404;2023-05-10T04:39:03;6.78;;;3.05;;
65375;SDS011;51976;47.332;9.404;2023-05-10T04:41:29;8.48;;;4.13;;
65375;SDS011;51976;47.332;9.404;2023-05-10T04:43:54;6.35;;;2.83;;
65375;SDS011;51976;47.332;9.404;2023-05-10T04:46:20;7.45;;;2.20;;
65375;SDS011;51976;47.332;9.404;2023-05-10T04:48:45;3.42;;;1.98;;
65375;SDS011;51976;47.332;9.404;2023-05-10T04:51:11;3.72;;;1.60;;
65375;SDS011;51976;47.332;9.404;2023-05-10T04:53:37;3.38;;;1.50;;
65375;SDS011;51976;47.332;9.404;2023-05-10T04:56:02;2.22;;;1.00;;
65375;SDS011;51976;47.332;9.404;2023-05-10T04:58:28;2.80;;;1.42;;
65375;SDS011;51976;47.332;9.404;2023-05-10T05:00:53;3.33;;;2.03;;
65375;SDS011;51976;47.332;9.404;2023-05-10T05:03:18;2.55;;;1.40;;
65375;SDS011;51976;47.332;9.404;2023-05-10T05:05:44;4.28;;;1.60;;
65375;SDS011;51976;47.332;9.404;2023-05-10T05:08:10;2.67;;;1.00;;
65375;SDS011;51976;47.332;9.404;2023-05-10T05:10:35;1.42;;;0.73;;
65375;SDS011;51976;47.332;9.404;2023-05-10T05:13:00;0.82;;;0.50;;
65375;SDS011;51976;47.332;9.404;2023-05-10T05:15:26;1.40;;;0.50;;
65375;SDS011;51976;47.332;9.404;2023-05-10T05:17:51;5.20;;;0.57;;
65375;SDS011;51976;47.332;9.404;2023-05-10T05:20:17;2.42;;;0.52;;
65375;SDS011;51976;47.332;9.404;2023-05-10T05:22:43;4.90;;;0.90;;
65375;SDS011;51976;47.332;9.404;2023-05-10T05:25:09;2.97;;;0.55;;
65375;SDS011;51976;47.332;9.404;2023-05-10T05:27:34;2.60;;;0.88;;
65375;SDS011;51976;47.332;9.404;2023-05-10T05:30:00;0.95;;;0.50;;
65375;SDS011;51976;47.332;9.404;2023-05-10T05:32:25;4.78;;;1.08;;
65375;SDS011;51976;47.332;9.404;2023-05-10T05:34:51;1.45;;;0.60;;
65375;SDS011;51976;47.332;9.404;2023-05-10T05:37:17;1.45;;;0.45;;
65375;SDS011;51976;47.332;9.404;2023-05-10T05:39:44;1.00;;;0.40;;
65375;SDS011;51976;47.332;9.404;2023-05-10T05:42:10;0.75;;;0.30;;
65375;SDS011;51976;47.332;9.404;2023-05-10T05:44:36;0.82;;;0.30;;
65375;SDS011;51976;47.332;9.404;2023-05-10T05:47:02;3.33;;;0.40;;
65375;SDS011;51976;47.332;9.404;2023-05-10T05:49:28;0.95;;;0.40;;
65375;SDS011;51976;47.332;9.404;2023-05-10T05:51:53;0.77;;;0.30;;
65375;SDS011;51976;47.332;9.404;2023-05-10T05:54:19;0.77;;;0.30;;
65375;SDS011;51976;47.332;9.404;2023-05-10T05:56:45;2.35;;;0.40;;
65375;SDS011;51976;47.332;9.404;2023-05-10T05:59:11;4.50;;;0.50;;
65375;SDS011;51976;47.332;9.404;2023-05-10T06:01:36;10.40;;;1.60;;
65375;SDS011;51976;47.332;9.404;2023-05-10T06:04:02;11.25;;;1.60;;
65375;SDS011;51976;47.332;9.404;2023-05-10T06:06:27;3.13;;;0.60;;
65375;SDS011;51976;47.332;9.404;2023-05-10T06:08:53;3.42;;;0.90;;
65375;SDS011;51976;47.332;9.404;2023-05-10T06:11:18;1.45;;;0.77;;
65375;SDS011;51976;47.332;9.404;2023-05-10T06:13:45;3.03;;;1.20;;
65375;SDS011;51976;47.332;9.404;2023-05-10T06:16:11;2.15;;;1.13;;
65375;SDS011;51976;47.332;9.404;2023-05-10T06:18:37;4.10;;;1.15;;
65375;SDS011;51976;47.332;9.404;2023-05-10T06:21:02;5.22;;;1.40;;
65375;SDS011;51976;47.332;9.404;2023-05-10T06:23:28;2.30;;;0.70;;
65375;SDS011;51976;47.332;9.404;2023-05-10T06:25:53;0.60;;;0.32;;
65375;SDS011;51976;47.332;9.404;2023-05-10T06:28:19;0.70;;;0.30;;
65375;SDS011;51976;47.332;9.404;2023-05-10T06:30:45;3.70;;;0.40;;
65375;SDS011;51976;47.332;9.404;2023-05-10T06:33:10;4.43;;;0.43;;
65375;SDS011;51976;47.332;9.404;2023-05-10T06:35:35;0.63;;;0.20;;
65375;SDS011;51976;47.332;9.404;2023-05-10T06:38:01;1.13;;;0.25;;
65375;SDS011;51976;47.332;9.404;2023-05-10T06:40:29;0.30;;;0.15;;
65375;SDS011;51976;47.332;9.404;2023-05-10T06:42:55;1.10;;;0.28;;
65375;SDS011;51976;47.332;9.404;2023-05-10T06:45:20;0.65;;;0.20;;
65375;SDS011;51976;47.332;9.404;2023-05-10T06:47:46;1.83;;;0.30;;
65375;SDS011;51976;47.332;9.404;2023-05-10T06:50:11;0.60;;;0.17;;
65375;SDS011;51976;47.332;9.404;2023-05-10T06:52:37;0.57;;;0.30;;
65375;SDS011;51976;47.332;9.404;2023-05-10T06:55:03;0.82;;;0.40;;
65375;SDS011;51976;47.332;9.404;2023-05-10T06:57:31;0.57;;;0.10;;
65375;SDS011;51976;47.332;9.404;2023-05-10T07:00:00;0.30;;;0.10;;
65375;SDS011;51976;47.332;9.404;2023-05-10T07:02:29;0.30;;;0.10;;
65375;SDS011;51976;47.332;9.404;2023-05-10T07:04:55;0.40;;;0.20;;
65375;SDS011;51976;47.332;9.404;2023-05-10T07:07:21;0.38;;;0.20;;
65375;SDS011;51976;47.332;9.404;2023-05-10T07:09:46;0.20;;;0.10;;
65375;SDS011;51976;47.332;9.404;2023-05-10T07:12:12;0.98;;;0.10;;
65375;SDS011;51976;47.332;9.404;2023-05-10T07:14:37;0.32;;;0.10;;
65375;SDS011;51976;47.332;9.404;2023-05-10T07:17:03;0.77;;;0.28;;
65375;SDS011;51976;47.332;9.404;2023-05-10T07:19:29;1.40;;;0.60;;
65375;SDS011;51976;47.332;9.404;2023-05-10T07:21:54;1.50;;;0.60;;
65375;SDS011;51976;47.332;9.404;2023-05-10T07:24:20;0.82;;;0.30;;
65375;SDS011;51976;47.332;9.404;2023-05-10T07:26:45;1.33;;;0.30;;
65375;SDS011;51976;47.332;9.404;2023-05-10T07:29:11;1.13;;;0.20;;
65375;SDS011;51976;47.332;9.404;2023-05-10T07:31:36;0.50;;;0.20;;
65375;SDS011;51976;47.332;9.404;2023-05-10T07:34:02;1.33;;;0.15;;
65375;SDS011;51976;47.332;9.404;2023-05-10T07:36:27;0.95;;;0.20;;
65375;SDS011;51976;47.332;9.404;2023-05-10T07:38:53;0.32;;;0.10;;
65375;SDS011;51976;47.332;9.404;2023-05-10T07:41:19;2.92;;;0.17;;
65375;SDS011;51976;47.332;9.404;2023-05-10T07:43:45;4.25;;;1.50;;
65375;SDS011;51976;47.332;9.404;2023-05-10T07:46:11;1.85;;;0.68;;
65375;SDS011;51976;47.332;9.404;2023-05-10T07:48:36;0.20;;;0.10;;
65375;SDS011;51976;47.332;9.404;2023-05-10T07:51:02;0.43;;;0.25;;
65375;SDS011;51976;47.332;9.404;2023-05-10T07:53:28;2.53;;;1.40;;
65375;SDS011;51976;47.332;9.404;2023-05-10T07:55:54;2.13;;;0.93;;
65375;SDS011;51976;47.332;9.404;2023-05-10T07:58:22;0.20;;;0.00;;
65375;SDS011;51976;47.332;9.404;2023-05-10T08:00:48;0.57;;;0.20;;
65375;SDS011;51976;47.332;9.404;2023-05-10T08:03:14;0.50;;;0.20;;
65375;SDS011;51976;47.332;9.404;2023-05-10T08:05:39;0.90;;;0.20;;
65375;SDS011;51976;47.332;9.404;2023-05-10T08:08:05;1.23;;;0.60;;
65375;SDS011;51976;47.332;9.404;2023-05-10T08:10:32;0.60;;;0.22;;
65375;SDS011;51976;47.332;9.404;2023-05-10T08:12:57;1.30;;;0.30;;
65375;SDS011;51976;47.332;9.404;2023-05-10T08:15:24;1.80;;;0.95;;
65375;SDS011;51976;47.332;9.404;2023-05-10T08:17:51;3.47;;;0.50;;
65375;SDS011;51976;47.332;9.404;2023-05-10T08:20:17;0.17;;;0.03;;
65375;SDS011;51976;47.332;9.404;2023-05-10T08:22:47;0.57;;;0.20;;
65375;SDS011;51976;47.332;9.404;2023-05-10T08:25:12;0.25;;;0.13;;
65375;SDS011;51976;47.332;9.404;2023-05-10T08:27:38;0.60;;;0.30;;
65375;SDS011;51976;47.332;9.404;2023-05-10T08:30:03;1.50;;;0.55;;
65375;SDS011;51976;47.332;9.404;2023-05-10T08:32:29;1.25;;;0.40;;
65375;SDS011;51976;47.332;9.404;2023-05-10T08:34:55;1.77;;;0.77;;
65375;SDS011;51976;47.332;9.404;2023-05-10T08:37:21;1.35;;;0.40;;
65375;SDS011;51976;47.332;9.404;2023-05-10T08:39:48;0.50;;;0.20;;
65375;SDS011;51976;47.332;9.404;2023-05-10T08:42:13;0.50;;;0.20;;
65375;SDS011;51976;47.332;9.404;2023-05-10T08:44:44;0.22;;;0.13;;
65375;SDS011;51976;47.332;9.404;2023-05-10T08:47:13;0.57;;;0.20;;
65375;SDS011;51976;47.332;9.404;2023-05-10T08:49:41;0.63;;;0.20;;
65375;SDS011;51976;47.332;9.404;2023-05-10T08:52:09;0.60;;;0.15;;
65375;SDS011;51976;47.332;9.404;2023-05-10T08:54:37;0.70;;;0.30;;
65375;SDS011;51976;47.332;9.404;2023-05-10T08:57:03;0.55;;;0.20;;
65375;SDS011;51976;47.332;9.404;2023-05-10T08:59:29;0.75;;;0.17;;
65375;SDS011;51976;47.332;9.404;2023-05-10T09:01:57;0.30;;;0.08;;
65375;SDS011;51976;47.332;9.404;2023-05-10T09:04:24;1.00;;;0.10;;
65375;SDS011;51976;47.332;9.404;2023-05-10T09:06:49;0.98;;;0.20;;
65375;SDS011;51976;47.332;9.404;2023-05-10T09:09:15;0.93;;;0.20;;
65375;SDS011;51976;47.332;9.404;2023-05-10T09:11:42;0.70;;;0.30;;
65375;SDS011;51976;47.332;9.404;2023-05-10T09:14:09;0.50;;;0.20;;
65375;SDS011;51976;47.332;9.404;2023-05-10T09:16:35;1.27;;;0.40;;
65375;SDS011;51976;47.332;9.404;2023-05-10T09:19:00;2.97;;;0.47;;
65375;SDS011;51976;47.332;9.404;2023-05-10T09:21:31;0.52;;;0.20;;
65375;SDS011;51976;47.332;9.404;2023-05-10T09:23:56;0.47;;;0.17;;
65375;SDS011;51976;47.332;9.404;2023-05-10T09:26:22;0.40;;;0.20;;
65375;SDS011;51976;47.332;9.404;2023-05-10T09:28:55;0.43;;;0.15;;
65375;SDS011;51976;47.332;9.404;2023-05-10T09:31:22;1.20;;;0.40;;
65375;SDS011;51976;47.332;9.404;2023-05-10T09:33:50;0.43;;;0.25;;
65375;SDS011;51976;47.332;9.404;2023-05-10T09:36:17;3.17;;;0.38;;
65375;SDS011;51976;47.332;9.404;2023-05-10T09:38:48;4.40;;;0.30;;
65375;SDS011;51976;47.332;9.404;2023-05-10T09:41:17;6.20;;;0.45;;
65375;SDS011;51976;47.332;9.404;2023-05-10T09:43:49;5.25;;;0.40;;
65375;SDS011;51976;47.332;9.404;2023-05-10T09:46:21;1.98;;;0.10;;
65375;SDS011;51976;47.332;9.404;2023-05-10T09:48:47;1.63;;;0.30;;
65375;SDS011;51976;47.332;9.404;2023-05-10T09:51:24;1.48;;;0.40;;
65375;SDS011;51976;47.332;9.404;2023-05-10T09:54:12;0.90;;;0.68;;
65375;SDS011;51976;47.332;9.404;2023-05-10T09:56:38;1.45;;;0.60;;
65375;SDS011;51976;47.332;9.404;2023-05-10T09:59:06;2.33;;;1.20;;
65375;SDS011;51976;47.332;9.404;2023-05-10T10:01:34;1.23;;;0.60;;
65375;SDS011;51976;47.332;9.404;2023-05-10T10:04:06;1.48;;;0.25;;
65375;SDS011;51976;47.332;9.404;2023-05-10T10:06:38;0.73;;;0.32;;
65375;SDS011;51976;47.332;9.404;2023-05-10T10:09:05;1.80;;;0.60;;
65375;SDS011;51976;47.332;9.404;2023-05-10T10:11:31;2.92;;;0.50;;
65375;SDS011;51976;47.332;9.404;2023-05-10T10:13:57;2.65;;;0.47;;
65375;SDS011;51976;47.332;9.404;2023-05-10T10:16:23;1.85;;;0.20;;
65375;SDS011;51976;47.332;9.404;2023-05-10T10:18:49;0.88;;;0.40;;
65375;SDS011;51976;47.332;9.404;2023-05-10T10:21:15;0.98;;;0.30;;
65375;SDS011;51976;47.332;9.404;2023-05-10T10:23:41;0.88;;;0.30;;
65375;SDS011;51976;47.332;9.404;2023-05-10T10:26:08;0.98;;;0.40;;
65375;SDS011;51976;47.332;9.404;2023-05-10T10:28:39;0.90;;;0.30;;
65375;SDS011;51976;47.332;9.404;2023-05-10T10:31:36;1.00;;;0.35;;
65375;SDS011;51976;47.332;9.404;2023-05-10T10:34:27;0.70;;;0.35;;
65375;SDS011;51976;47.332;9.404;2023-05-10T10:36:55;1.20;;;0.50;;
65375;SDS011;51976;47.332;9.404;2023-05-10T10:39:21;0.93;;;0.43;;
65375;SDS011;51976;47.332;9.404;2023-05-10T10:41:54;1.58;;;0.50;;
65375;SDS011;51976;47.332;9.404;2023-05-10T10:44:33;1.98;;;0.63;;
65375;SDS011;51976;47.332;9.404;2023-05-10T10:47:02;0.90;;;0.50;;
65375;SDS011;51976;47.332;9.404;2023-05-10T10:49:44;1.70;;;0.68;;
65375;SDS011;51976;47.332;9.404;2023-05-10T10:52:32;1.65;;;0.50;;
65375;SDS011;51976;47.332;9.404;2023-05-10T10:55:01;1.07;;;0.50;;
65375;SDS011;51976;47.332;9.404;2023-05-10T10:57:43;6.87;;;2.07;;
65375;SDS011;51976;47.332;9.404;2023-05-10T11:00:23;3.03;;;1.08;;
65375;SDS011;51976;47.332;9.404;2023-05-10T11:02:55;1.40;;;0.50;;
65375;SDS011;51976;47.332;9.404;2023-05-10T11:05:36;2.92;;;1.38;;
65375;SDS011;51976;47.332;9.404;2023-05-10T11:08:08;1.85;;;0.60;;
65375;SDS011;51976;47.332;9.404;2023-05-10T11:10:36;5.00;;;1.30;;
65375;SDS011;51976;47.332;9.404;2023-05-10T11:13:03;5.28;;;2.67;;
65375;SDS011;51976;47.332;9.404;2023-05-10T11:15:33;8.60;;;2.70;;
65375;SDS011;51976;47.332;9.404;2023-05-10T11:18:16;5.43;;;2.78;;
65375;SDS011;51976;47.332;9.404;2023-05-10T11:20:43;4.20;;;2.45;;
65375;SDS011;51976;47.332;9.404;2023-05-10T11:23:12;3.53;;;1.55;;
65375;SDS011;51976;47.332;9.404;2023-05-10T11:25:41;3.80;;;1.55;;
65375;SDS011;51976;47.332;9.404;2023-05-10T11:28:09;3.25;;;1.63;;
65375;SDS011;51976;47.332;9.404;2023-05-10T11:30:35;4.43;;;2.03;;
65375;SDS011;51976;47.332;9.404;2023-05-10T11:33:03;2.58;;;1.17;;
65375;SDS011;51976;47.332;9.404;2023-05-10T11:35:29;4.38;;;1.50;;
65375;SDS011;51976;47.332;9.404;2023-05-10T11:37:55;2.92;;;1.02;;
65375;SDS011;51976;47.332;9.404;2023-05-10T11:40:23;2.17;;;1.02;;
65375;SDS011;51976;47.332;9.404;2023-05-10T11:42:49;3.90;;;1.33;;
65375;SDS011;51976;47.332;9.404;2023-05-10T11:45:15;2.55;;;1.10;;
65375;SDS011;51976;47.332;9.404;2023-05-10T11:47:41;4.53;;;1.55;;
65375;SDS011;51976;47.332;9.404;2023-05-10T11:50:08;2.55;;;0.93;;
65375;SDS011;51976;47.332;9.404;2023-05-10T11:52:36;4.65;;;1.10;;
65375;SDS011;51976;47.332;9.404;2023-05-10T11:55:04;2.08;;;1.30;;
65375;SDS011;51976;47.332;9.404;2023-05-10T11:57:30;1.58;;;0.80;;
65375;SDS011;51976;47.332;9.404;2023-05-10T11:59:56;1.83;;;0.55;;
65375;SDS011;51976;47.332;9.404;2023-05-10T12:02:22;0.90;;;0.50;;
65375;SDS011;51976;47.332;9.404;2023-05-10T12:04:48;1.00;;;0.40;;
65375;SDS011;51976;47.332;9.404;2023-05-10T12:07:14;1.13;;;0.50;;
65375;SDS011;51976;47.332;9.404;2023-05-10T12:10:02;5.00;;;0.80;;
65375;SDS011;51976;47.332;9.404;2023-05-10T12:12:37;1.70;;;0.70;;
65375;SDS011;51976;47.332;9.404;2023-05-10T12:15:04;1.98;;;0.35;;
65375;SDS011;51976;47.332;9.404;2023-05-10T12:17:31;0.82;;;0.30;;
65375;SDS011;51976;47.332;9.404;2023-05-10T12:20:12;1.55;;;0.30;;
65375;SDS011;51976;47.332;9.404;2023-05-10T12:22:39;1.55;;;0.40;;
65375;SDS011;51976;47.332;9.404;2023-05-10T12:25:05;1.77;;;0.73;;
65375;SDS011;51976;47.332;9.404;2023-05-10T12:27:32;3.40;;;1.30;;
65375;SDS011;51976;47.332;9.404;2023-05-10T12:29:59;3.35;;;1.75;;
65375;SDS011;51976;47.332;9.404;2023-05-10T12:32:39;4.15;;;1.05;;
65375;SDS011;51976;47.332;9.404;2023-05-10T12:35:07;4.68;;;1.90;;
65375;SDS011;51976;47.332;9.404;2023-05-10T12:37:33;6.70;;;2.95;;
65375;SDS011;51976;47.332;9.404;2023-05-10T12:40:04;3.95;;;1.63;;
65375;SDS011;51976;47.332;9.404;2023-05-10T12:42:31;3.53;;;1.35;;
65375;SDS011;51976;47.332;9.404;2023-05-10T12:44:57;2.75;;;1.30;;
65375;SDS011;51976;47.332;9.404;2023-05-10T12:47:22;2.00;;;0.60;;
65375;SDS011;51976;47.332;9.404;2023-05-10T12:49:48;2.08;;;1.08;;
65375;SDS011;51976;47.332;9.404;2023-05-10T12:52:13;3.38;;;1.20;;
65375;SDS011;51976;47.332;9.404;2023-05-10T12:54:39;2.80;;;0.85;;
65375;SDS011;51976;47.332;9.404;2023-05-10T12:57:04;3.20;;;0.93;;
65375;SDS011;51976;47.332;9.404;2023-05-10T12:59:30;1.80;;;0.70;;
65375;SDS011;51976;47.332;9.404;2023-05-10T13:01:56;3.22;;;0.60;;
65375;SDS011;51976;47.332;9.404;2023-05-10T13:04:22;1.65;;;0.75;;
65375;SDS011;51976;47.332;9.404;2023-05-10T13:06:47;0.90;;;0.40;;
65375;SDS011;51976;47.332;9.404;2023-05-10T13:09:13;1.10;;;0.30;;
65375;SDS011;51976;47.332;9.404;2023-05-10T13:11:38;4.22;;;0.47;;
65375;SDS011;51976;47.332;9.404;2023-05-10T13:14:04;1.63;;;0.60;;
65375;SDS011;51976;47.332;9.404;2023-05-10T13:16:30;1.40;;;0.55;;
65375;SDS011;51976;47.332;9.404;2023-05-10T13:18:55;1.77;;;0.68;;
65375;SDS011;51976;47.332;9.404;2023-05-10T13:21:20;3.58;;;0.82;;
65375;SDS011;51976;47.332;9.404;2023-05-10T13:23:46;1.58;;;0.55;;
65375;SDS011;51976;47.332;9.404;2023-05-10T13:26:12;3.25;;;0.77;;
65375;SDS011;51976;47.332;9.404;2023-05-10T13:28:37;1.25;;;0.65;;
65375;SDS011;51976;47.332;9.404;2023-05-10T13:31:03;1.85;;;0.73;;
65375;SDS011;51976;47.332;9.404;2023-05-10T13:33:30;3.28;;;1.08;;
65375;SDS011;51976;47.332;9.404;2023-05-10T13:35:56;4.53;;;0.98;;
65375;SDS011;51976;47.332;9.404;2023-05-10T13:38:21;2.55;;;1.20;;
65375;SDS011;51976;47.332;9.404;2023-05-10T13:40:47;2.38;;;1.17;;
65375;SDS011;51976;47.332;9.404;2023-05-10T13:43:12;2.08;;;0.70;;
65375;SDS011;51976;47.332;9.404;2023-05-10T13:45:38;1.63;;;0.50;;
65375;SDS011;51976;47.332;9.404;2023-05-10T13:48:04;1.75;;;0.70;;
65375;SDS011;51976;47.332;9.404;2023-05-10T13:50:29;2.72;;;0.60;;
65375;SDS011;51976;47.332;9.404;2023-05-10T13:52:55;2.30;;;0.90;;
65375;SDS011;51976;47.332;9.404;2023-05-10T13:55:20;2.60;;;0.57;;
65375;SDS011;51976;47.332;9.404;2023-05-10T13:57:45;0.90;;;0.45;;
65375;SDS011;51976;47.332;9.404;2023-05-10T14:00:11;0.63;;;0.40;;
65375;SDS011;51976;47.332;9.404;2023-05-10T14:02:37;0.80;;;0.30;;
65375;SDS011;51976;47.332;9.404;2023-05-10T14:05:03;0.80;;;0.40;;
65375;SDS011;51976;47.332;9.404;2023-05-10T14:07:29;1.60;;;0.52;;
65375;SDS011;51976;47.332;9.404;2023-05-10T14:09:54;2.35;;;0.40;;
65375;SDS011;51976;47.332;9.404;2023-05-10T14:12:20;1.13;;;0.40;;
65375;SDS011;51976;47.332;9.404;2023-05-10T14:14:45;0.63;;;0.40;;
65375;SDS011;51976;47.332;9.404;2023-05-10T14:17:10;1.33;;;0.80;;
65375;SDS011;51976;47.332;9.404;2023-05-10T14:19:36;1.30;;;0.63;;
65375;SDS011;51976;47.332;9.404;2023-05-10T14:22:01;1.98;;;0.45;;
65375;SDS011;51976;47.332;9.404;2023-05-10T14:24:27;1.38;;;0.60;;
65375;SDS011;51976;47.332;9.404;2023-05-10T14:26:53;1.80;;;0.60;;
65375;SDS011;51976;47.332;9.404;2023-05-10T14:29:19;2.00;;;0.60;;
65375;SDS011;51976;47.332;9.404;2023-05-10T14:31:45;2.60;;;0.70;;
65375;SDS011;51976;47.332;9.404;2023-05-10T14:34:10;1.58;;;0.50;;
65375;SDS011;51976;47.332;9.404;2023-05-10T14:36:36;1.85;;;0.70;;
65375;SDS011;51976;47.332;9.404;2023-05-10T14:39:01;4.57;;;0.90;;
65375;SDS011;51976;47.332;9.404;2023-05-10T14:41:27;4.07;;;0.73;;
65375;SDS011;51976;47.332;9.404;2023-05-10T14:43:53;2.72;;;0.75;;
65375;SDS011;51976;47.332;9.404;2023-05-10T14:46:18;3.13;;;0.57;;
65375;SDS011;51976;47.332;9.404;2023-05-10T14:48:44;2.20;;;0.60;;
65375;SDS011;51976;47.332;9.404;2023-05-10T14:51:10;1.67;;;0.50;;
65375;SDS011;51976;47.332;9.404;2023-05-10T14:53:36;2.13;;;0.70;;
65375;SDS011;51976;47.332;9.404;2023-05-10T14:56:01;1.63;;;0.52;;
65375;SDS011;51976;47.332;9.404;2023-05-10T14:58:27;3.28;;;0.73;;